sensor_id;sensor_type;location;lat;lon;timestamp;P1;durP1;ratioP1;P2;durP2;ratioP2
46355;SDS011;32066;49.474;11.106;2022-09-16T00:00:32;11.50;;;8.48;;
46355;SDS011;32066;49.474;11.106;2022-09-16T00:02:59;14.32;;;8.98;;
46355;SDS011;32066;49.474;11.106;2022-09-16T00:05:25;16.70;;;8.00;;
46355;SDS011;32066;49.474;11.106;2022-09-16T00:07:52;10.32;;;7.68;;
46355;SDS011;32066;49.474;11.106;2022-09-16T00:10:20;11.45;;;8.10;;
46355;SDS011;32066;49.474;11.106;2022-09-16T00:12:48;14.40;;;8.68;;
46355;SDS011;32066;49.474;11.106;2022-09-16T00:15:15;11.85;;;8.05;;
46355;SDS011;32066;49.474;11.106;2022-09-16T00:17:44;11.55;;;7.85;;
46355;SDS011;32066;49.474;11.106;2022-09-16T00:20:11;13.70;;;7.75;;
46355;SDS011;32066;49.474;11.106;2022-09-16T00:22:38;13.18;;;7.95;;
46355;SDS011;32066;49.474;11.106;2022-09-16T00:25:05;11.80;;;8.40;;
46355;SDS011;32066;49.474;11.106;2022-09-16T00:27:32;12.10;;;7.63;;
46355;SDS011;32066;49.474;11.106;2022-09-16T00:29:59;12.50;;;8.60;;
46355;SDS011;32066;49.474;11.106;2022-09-16T00:32:26;11.23;;;7.30;;
46355;SDS011;32066;49.474;11.106;2022-09-16T00:34:54;11.63;;;7.43;;
46355;SDS011;32066;49.474;11.106;2022-09-16T00:37:21;11.00;;;7.22;;
46355;SDS011;32066;49.474;11.106;2022-09-16T00:39:48;12.85;;;7.40;;
46355;SDS011;32066;49.474;11.106;2022-09-16T00:42:16;12.63;;;7.45;;
46355;SDS011;32066;49.474;11.106;2022-09-16T00:44:51;11.45;;;7.00;;
46355;SDS011;32066;49.474;11.106;2022-09-16T00:47:22;19.40;;;8.35;;
46355;SDS011;32066;49.474;11.106;2022-09-16T00:49:52;13.50;;;7.75;;
46355;SDS011;32066;49.474;11.106;2022-09-16T00:52:26;11.38;;;6.70;;
46355;SDS011;32066;49.474;11.106;2022-09-16T00:54:54;11.40;;;7.18;;
46355;SDS011;32066;49.474;11.106;2022-09-16T00:57:21;11.98;;;6.97;;
46355;SDS011;32066;49.474;11.106;2022-09-16T00:59:48;10.13;;;7.22;;
46355;SDS011;32066;49.474;11.106;2022-09-16T01:02:19;9.73;;;7.15;;
46355;SDS011;32066;49.474;11.106;2022-09-16T01:04:48;10.65;;;7.20;;
46355;SDS011;32066;49.474;11.106;2022-09-16T01:07:23;12.50;;;8.13;;
46355;SDS011;32066;49.474;11.106;2022-09-16T01:09:55;10.00;;;6.95;;
46355;SDS011;32066;49.474;11.106;2022-09-16T01:12:22;12.20;;;7.45;;
46355;SDS011;32066;49.474;11.106;2022-09-16T01:14:51;11.75;;;7.53;;
46355;SDS011;32066;49.474;11.106;2022-09-16T01:17:20;10.68;;;6.75;;
46355;SDS011;32066;49.474;11.106;2022-09-16T01:23:21;12.80;;;6.50;;
46355;SDS011;32066;49.474;11.106;2022-09-16T01:26:07;10.38;;;6.15;;
46355;SDS011;32066;49.474;11.106;2022-09-16T01:28:58;9.80;;;5.85;;
46355;SDS011;32066;49.474;11.106;2022-09-16T01:31:43;10.02;;;6.18;;
46355;SDS011;32066;49.474;11.106;2022-09-16T01:34:16;7.72;;;5.43;;
46355;SDS011;32066;49.474;11.106;2022-09-16T01:36:54;9.45;;;5.68;;
46355;SDS011;32066;49.474;11.106;2022-09-16T01:39:28;11.40;;;5.90;;
46355;SDS011;32066;49.474;11.106;2022-09-16T01:42:04;9.15;;;5.72;;
46355;SDS011;32066;49.474;11.106;2022-09-16T01:44:41;9.30;;;6.05;;
46355;SDS011;32066;49.474;11.106;2022-09-16T01:47:17;12.30;;;6.03;;
46355;SDS011;32066;49.474;11.106;2022-09-16T01:49:52;9.27;;;5.65;;
46355;SDS011;32066;49.474;11.106;2022-09-16T01:54:55;8.73;;;5.97;;
46355;SDS011;32066;49.474;11.106;2022-09-16T01:57:27;10.13;;;6.13;;
46355;SDS011;32066;49.474;11.106;2022-09-16T02:00:01;8.30;;;6.40;;
46355;SDS011;32066;49.474;11.106;2022-09-16T02:02:32;8.93;;;6.13;;
46355;SDS011;32066;49.474;11.106;2022-09-16T02:05:04;10.73;;;7.35;;
46355;SDS011;32066;49.474;11.106;2022-09-16T02:07:35;11.02;;;6.55;;
46355;SDS011;32066;49.474;11.106;2022-09-16T02:10:06;9.48;;;6.10;;
46355;SDS011;32066;49.474;11.106;2022-09-16T02:12:38;9.27;;;6.13;;
46355;SDS011;32066;49.474;11.106;2022-09-16T02:15:09;9.90;;;5.38;;
46355;SDS011;32066;49.474;11.106;2022-09-16T02:17:44;7.90;;;5.45;;
46355;SDS011;32066;49.474;11.106;2022-09-16T02:20:15;8.48;;;5.53;;
46355;SDS011;32066;49.474;11.106;2022-09-16T02:22:46;8.65;;;5.20;;
46355;SDS011;32066;49.474;11.106;2022-09-16T02:25:17;11.23;;;5.75;;
46355;SDS011;32066;49.474;11.106;2022-09-16T02:27:45;9.23;;;5.15;;
46355;SDS011;32066;49.474;11.106;2022-09-16T02:30:15;9.98;;;5.07;;
46355;SDS011;32066;49.474;11.106;2022-09-16T02:32:46;7.55;;;5.05;;
46355;SDS011;32066;49.474;11.106;2022-09-16T02:35:16;9.40;;;5.60;;
46355;SDS011;32066;49.474;11.106;2022-09-16T02:37:46;8.57;;;5.00;;
46355;SDS011;32066;49.474;11.106;2022-09-16T02:40:16;11.43;;;6.00;;
46355;SDS011;32066;49.474;11.106;2022-09-16T02:42:48;10.13;;;5.55;;
46355;SDS011;32066;49.474;11.106;2022-09-16T02:45:15;9.13;;;5.57;;
46355;SDS011;32066;49.474;11.106;2022-09-16T02:47:44;10.07;;;5.45;;
46355;SDS011;32066;49.474;11.106;2022-09-16T02:50:21;7.82;;;5.05;;
46355;SDS011;32066;49.474;11.106;2022-09-16T02:52:54;12.30;;;5.07;;
46355;SDS011;32066;49.474;11.106;2022-09-16T02:55:28;12.27;;;4.90;;
46355;SDS011;32066;49.474;11.106;2022-09-16T02:58:03;7.60;;;4.80;;
46355;SDS011;32066;49.474;11.106;2022-09-16T03:00:31;9.45;;;5.30;;
46355;SDS011;32066;49.474;11.106;2022-09-16T03:03:02;8.57;;;5.22;;
46355;SDS011;32066;49.474;11.106;2022-09-16T03:05:29;8.90;;;5.15;;
46355;SDS011;32066;49.474;11.106;2022-09-16T03:07:57;8.88;;;4.88;;
46355;SDS011;32066;49.474;11.106;2022-09-16T03:10:28;8.73;;;5.32;;
46355;SDS011;32066;49.474;11.106;2022-09-16T03:13:02;8.68;;;5.05;;
46355;SDS011;32066;49.474;11.106;2022-09-16T03:15:41;8.13;;;5.10;;
46355;SDS011;32066;49.474;11.106;2022-09-16T03:21:16;8.50;;;5.20;;
46355;SDS011;32066;49.474;11.106;2022-09-16T03:23:51;9.02;;;4.85;;
46355;SDS011;32066;49.474;11.106;2022-09-16T03:26:28;7.72;;;5.20;;
46355;SDS011;32066;49.474;11.106;2022-09-16T03:29:01;7.85;;;4.60;;
46355;SDS011;32066;49.474;11.106;2022-09-16T03:31:38;10.48;;;5.72;;
46355;SDS011;32066;49.474;11.106;2022-09-16T03:34:14;7.43;;;4.30;;
46355;SDS011;32066;49.474;11.106;2022-09-16T03:36:46;8.10;;;4.40;;
46355;SDS011;32066;49.474;11.106;2022-09-16T03:39:18;9.48;;;4.55;;
46355;SDS011;32066;49.474;11.106;2022-09-16T03:41:46;7.75;;;4.15;;
46355;SDS011;32066;49.474;11.106;2022-09-16T03:44:13;7.57;;;4.15;;
46355;SDS011;32066;49.474;11.106;2022-09-16T03:46:40;12.75;;;4.45;;
46355;SDS011;32066;49.474;11.106;2022-09-16T03:49:08;11.48;;;4.10;;
46355;SDS011;32066;49.474;11.106;2022-09-16T03:51:36;9.50;;;4.22;;
46355;SDS011;32066;49.474;11.106;2022-09-16T03:54:03;9.18;;;4.28;;
46355;SDS011;32066;49.474;11.106;2022-09-16T03:56:30;9.00;;;4.13;;
46355;SDS011;32066;49.474;11.106;2022-09-16T03:58:57;7.35;;;4.55;;
46355;SDS011;32066;49.474;11.106;2022-09-16T04:01:24;7.85;;;4.30;;
46355;SDS011;32066;49.474;11.106;2022-09-16T04:03:51;7.50;;;4.22;;
46355;SDS011;32066;49.474;11.106;2022-09-16T04:06:18;7.60;;;4.20;;
46355;SDS011;32066;49.474;11.106;2022-09-16T04:08:46;8.30;;;4.20;;
46355;SDS011;32066;49.474;11.106;2022-09-16T04:11:14;7.57;;;4.38;;
46355;SDS011;32066;49.474;11.106;2022-09-16T04:13:42;11.32;;;4.05;;
46355;SDS011;32066;49.474;11.106;2022-09-16T04:16:09;7.32;;;4.60;;
46355;SDS011;32066;49.474;11.106;2022-09-16T04:18:36;9.75;;;4.32;;
46355;SDS011;32066;49.474;11.106;2022-09-16T04:21:03;9.55;;;4.78;;
46355;SDS011;32066;49.474;11.106;2022-09-16T04:23:30;10.82;;;5.00;;
46355;SDS011;32066;49.474;11.106;2022-09-16T04:25:59;7.57;;;4.10;;
46355;SDS011;32066;49.474;11.106;2022-09-16T04:28:28;7.80;;;4.28;;
46355;SDS011;32066;49.474;11.106;2022-09-16T04:30:58;7.85;;;4.15;;
46355;SDS011;32066;49.474;11.106;2022-09-16T04:33:26;10.45;;;5.05;;
46355;SDS011;32066;49.474;11.106;2022-09-16T04:35:53;9.25;;;4.60;;
46355;SDS011;32066;49.474;11.106;2022-09-16T04:38:26;10.20;;;4.65;;
46355;SDS011;32066;49.474;11.106;2022-09-16T04:40:59;9.55;;;4.20;;
46355;SDS011;32066;49.474;11.106;2022-09-16T04:43:26;11.02;;;4.90;;
46355;SDS011;32066;49.474;11.106;2022-09-16T04:45:53;9.35;;;4.18;;
46355;SDS011;32066;49.474;11.106;2022-09-16T04:48:20;9.85;;;5.03;;
46355;SDS011;32066;49.474;11.106;2022-09-16T04:50:47;8.73;;;4.78;;
46355;SDS011;32066;49.474;11.106;2022-09-16T04:53:14;9.00;;;4.38;;
46355;SDS011;32066;49.474;11.106;2022-09-16T04:55:41;8.73;;;4.43;;
46355;SDS011;32066;49.474;11.106;2022-09-16T04:58:09;6.82;;;4.47;;
46355;SDS011;32066;49.474;11.106;2022-09-16T05:00:36;8.50;;;4.28;;
46355;SDS011;32066;49.474;11.106;2022-09-16T05:03:03;11.63;;;4.60;;
46355;SDS011;32066;49.474;11.106;2022-09-16T05:05:30;9.88;;;4.82;;
46355;SDS011;32066;49.474;11.106;2022-09-16T05:07:57;7.95;;;5.00;;
46355;SDS011;32066;49.474;11.106;2022-09-16T05:10:24;12.45;;;5.03;;
46355;SDS011;32066;49.474;11.106;2022-09-16T05:12:52;7.90;;;4.75;;
46355;SDS011;32066;49.474;11.106;2022-09-16T05:15:21;8.45;;;4.85;;
46355;SDS011;32066;49.474;11.106;2022-09-16T05:17:48;7.55;;;4.53;;
46355;SDS011;32066;49.474;11.106;2022-09-16T05:20:15;9.13;;;4.80;;
46355;SDS011;32066;49.474;11.106;2022-09-16T05:22:42;13.35;;;4.50;;
46355;SDS011;32066;49.474;11.106;2022-09-16T05:25:09;9.85;;;4.95;;
46355;SDS011;32066;49.474;11.106;2022-09-16T05:27:36;9.20;;;5.20;;
46355;SDS011;32066;49.474;11.106;2022-09-16T05:30:03;11.43;;;4.47;;
46355;SDS011;32066;49.474;11.106;2022-09-16T05:32:32;9.68;;;4.82;;
46355;SDS011;32066;49.474;11.106;2022-09-16T05:35:00;9.45;;;4.30;;
46355;SDS011;32066;49.474;11.106;2022-09-16T05:37:26;10.95;;;4.72;;
46355;SDS011;32066;49.474;11.106;2022-09-16T05:39:53;8.27;;;4.28;;
46355;SDS011;32066;49.474;11.106;2022-09-16T05:42:20;10.38;;;4.60;;
46355;SDS011;32066;49.474;11.106;2022-09-16T05:44:47;10.70;;;4.45;;
46355;SDS011;32066;49.474;11.106;2022-09-16T05:47:14;9.10;;;4.43;;
46355;SDS011;32066;49.474;11.106;2022-09-16T05:49:42;11.38;;;4.30;;
46355;SDS011;32066;49.474;11.106;2022-09-16T05:52:09;10.18;;;4.57;;
46355;SDS011;32066;49.474;11.106;2022-09-16T05:54:36;15.05;;;4.35;;
46355;SDS011;32066;49.474;11.106;2022-09-16T05:57:03;22.55;;;6.57;;
46355;SDS011;32066;49.474;11.106;2022-09-16T05:59:30;12.32;;;5.05;;
46355;SDS011;32066;49.474;11.106;2022-09-16T06:01:56;7.88;;;3.50;;
46355;SDS011;32066;49.474;11.106;2022-09-16T06:04:23;11.65;;;3.92;;
46355;SDS011;32066;49.474;11.106;2022-09-16T06:06:51;7.72;;;3.35;;
46355;SDS011;32066;49.474;11.106;2022-09-16T06:09:20;9.57;;;3.63;;
46355;SDS011;32066;49.474;11.106;2022-09-16T06:11:49;10.52;;;3.88;;
46355;SDS011;32066;49.474;11.106;2022-09-16T06:14:17;8.27;;;3.22;;
46355;SDS011;32066;49.474;11.106;2022-09-16T06:16:46;8.15;;;3.40;;
46355;SDS011;32066;49.474;11.106;2022-09-16T06:19:14;7.97;;;3.33;;
46355;SDS011;32066;49.474;11.106;2022-09-16T06:21:42;10.63;;;4.00;;
46355;SDS011;32066;49.474;11.106;2022-09-16T06:24:11;6.03;;;3.28;;
46355;SDS011;32066;49.474;11.106;2022-09-16T06:26:40;6.95;;;3.08;;
46355;SDS011;32066;49.474;11.106;2022-09-16T06:29:08;7.10;;;3.53;;
46355;SDS011;32066;49.474;11.106;2022-09-16T06:31:35;8.80;;;3.35;;
46355;SDS011;32066;49.474;11.106;2022-09-16T06:34:03;6.43;;;2.95;;
46355;SDS011;32066;49.474;11.106;2022-09-16T06:36:31;9.90;;;2.95;;
46355;SDS011;32066;49.474;11.106;2022-09-16T06:38:59;7.57;;;3.00;;
46355;SDS011;32066;49.474;11.106;2022-09-16T06:41:27;7.40;;;2.85;;
46355;SDS011;32066;49.474;11.106;2022-09-16T06:43:56;7.97;;;3.03;;
46355;SDS011;32066;49.474;11.106;2022-09-16T06:46:23;8.75;;;2.90;;
46355;SDS011;32066;49.474;11.106;2022-09-16T06:48:52;8.77;;;2.78;;
46355;SDS011;32066;49.474;11.106;2022-09-16T06:51:21;8.10;;;2.63;;
46355;SDS011;32066;49.474;11.106;2022-09-16T06:53:49;8.93;;;2.75;;
46355;SDS011;32066;49.474;11.106;2022-09-16T06:56:18;7.72;;;3.00;;
46355;SDS011;32066;49.474;11.106;2022-09-16T06:58:47;9.13;;;2.63;;
46355;SDS011;32066;49.474;11.106;2022-09-16T07:01:17;8.75;;;3.03;;
46355;SDS011;32066;49.474;11.106;2022-09-16T07:03:47;7.65;;;2.60;;
46355;SDS011;32066;49.474;11.106;2022-09-16T07:06:15;9.07;;;2.70;;
46355;SDS011;32066;49.474;11.106;2022-09-16T07:08:43;6.93;;;2.47;;
46355;SDS011;32066;49.474;11.106;2022-09-16T07:11:11;8.25;;;2.78;;
46355;SDS011;32066;49.474;11.106;2022-09-16T07:13:39;6.00;;;2.20;;
46355;SDS011;32066;49.474;11.106;2022-09-16T07:16:09;7.68;;;2.33;;
46355;SDS011;32066;49.474;11.106;2022-09-16T07:18:38;8.27;;;2.10;;
46355;SDS011;32066;49.474;11.106;2022-09-16T07:21:05;7.22;;;2.38;;
46355;SDS011;32066;49.474;11.106;2022-09-16T07:23:34;8.48;;;2.10;;
46355;SDS011;32066;49.474;11.106;2022-09-16T07:26:03;7.35;;;2.72;;
46355;SDS011;32066;49.474;11.106;2022-09-16T07:28:31;7.40;;;2.05;;
46355;SDS011;32066;49.474;11.106;2022-09-16T07:30:59;7.65;;;2.20;;
46355;SDS011;32066;49.474;11.106;2022-09-16T07:33:28;8.57;;;2.20;;
46355;SDS011;32066;49.474;11.106;2022-09-16T07:35:56;10.63;;;2.38;;
46355;SDS011;32066;49.474;11.106;2022-09-16T07:38:24;5.57;;;2.00;;
46355;SDS011;32066;49.474;11.106;2022-09-16T07:40:51;7.05;;;1.85;;
46355;SDS011;32066;49.474;11.106;2022-09-16T07:43:18;5.65;;;1.60;;
46355;SDS011;32066;49.474;11.106;2022-09-16T07:45:45;5.80;;;1.60;;
46355;SDS011;32066;49.474;11.106;2022-09-16T07:48:11;4.85;;;1.77;;
46355;SDS011;32066;49.474;11.106;2022-09-16T07:50:40;6.38;;;2.03;;
46355;SDS011;32066;49.474;11.106;2022-09-16T07:53:07;7.53;;;1.55;;
46355;SDS011;32066;49.474;11.106;2022-09-16T07:55:34;4.07;;;1.60;;
46355;SDS011;32066;49.474;11.106;2022-09-16T07:58:01;6.90;;;1.98;;
46355;SDS011;32066;49.474;11.106;2022-09-16T08:00:28;8.52;;;1.92;;
46355;SDS011;32066;49.474;11.106;2022-09-16T08:02:55;4.57;;;1.50;;
46355;SDS011;32066;49.474;11.106;2022-09-16T08:05:23;8.10;;;2.00;;
46355;SDS011;32066;49.474;11.106;2022-09-16T08:07:51;7.68;;;1.90;;
46355;SDS011;32066;49.474;11.106;2022-09-16T08:10:18;6.50;;;1.80;;
46355;SDS011;32066;49.474;11.106;2022-09-16T08:12:45;6.10;;;2.00;;
46355;SDS011;32066;49.474;11.106;2022-09-16T08:15:12;5.18;;;1.77;;
46355;SDS011;32066;49.474;11.106;2022-09-16T08:17:39;4.78;;;1.67;;
46355;SDS011;32066;49.474;11.106;2022-09-16T08:20:06;7.65;;;1.80;;
46355;SDS011;32066;49.474;11.106;2022-09-16T08:22:33;8.55;;;1.80;;
46355;SDS011;32066;49.474;11.106;2022-09-16T08:25:02;5.15;;;1.60;;
46355;SDS011;32066;49.474;11.106;2022-09-16T08:27:29;5.50;;;1.55;;
46355;SDS011;32066;49.474;11.106;2022-09-16T08:29:59;7.43;;;2.10;;
46355;SDS011;32066;49.474;11.106;2022-09-16T08:32:26;6.25;;;1.60;;
46355;SDS011;32066;49.474;11.106;2022-09-16T08:34:53;9.38;;;1.65;;
46355;SDS011;32066;49.474;11.106;2022-09-16T08:37:20;10.18;;;1.58;;
46355;SDS011;32066;49.474;11.106;2022-09-16T08:39:46;7.00;;;1.50;;
46355;SDS011;32066;49.474;11.106;2022-09-16T08:42:22;7.22;;;1.70;;
46355;SDS011;32066;49.474;11.106;2022-09-16T08:44:59;5.18;;;1.65;;
46355;SDS011;32066;49.474;11.106;2022-09-16T08:47:35;5.28;;;1.50;;
46355;SDS011;32066;49.474;11.106;2022-09-16T08:50:14;4.85;;;1.52;;
46355;SDS011;32066;49.474;11.106;2022-09-16T08:52:43;5.22;;;1.60;;
46355;SDS011;32066;49.474;11.106;2022-09-16T08:55:11;7.80;;;1.40;;
46355;SDS011;32066;49.474;11.106;2022-09-16T08:57:44;6.18;;;1.60;;
46355;SDS011;32066;49.474;11.106;2022-09-16T09:00:18;6.25;;;1.55;;
46355;SDS011;32066;49.474;11.106;2022-09-16T09:02:47;5.15;;;1.60;;
46355;SDS011;32066;49.474;11.106;2022-09-16T09:05:20;6.50;;;1.42;;
46355;SDS011;32066;49.474;11.106;2022-09-16T09:08:02;7.32;;;1.75;;
46355;SDS011;32066;49.474;11.106;2022-09-16T09:10:38;6.80;;;2.03;;
46355;SDS011;32066;49.474;11.106;2022-09-16T09:13:25;7.10;;;1.60;;
46355;SDS011;32066;49.474;11.106;2022-09-16T09:16:11;6.03;;;2.22;;
46355;SDS011;32066;49.474;11.106;2022-09-16T09:18:46;5.78;;;1.50;;
46355;SDS011;32066;49.474;11.106;2022-09-16T09:21:23;5.82;;;1.60;;
46355;SDS011;32066;49.474;11.106;2022-09-16T09:24:06;7.50;;;1.70;;
46355;SDS011;32066;49.474;11.106;2022-09-16T09:26:48;4.53;;;1.50;;
46355;SDS011;32066;49.474;11.106;2022-09-16T09:29:29;6.95;;;1.70;;
46355;SDS011;32066;49.474;11.106;2022-09-16T09:32:14;6.60;;;1.67;;
46355;SDS011;32066;49.474;11.106;2022-09-16T09:34:53;6.28;;;2.03;;
46355;SDS011;32066;49.474;11.106;2022-09-16T09:37:37;5.35;;;1.70;;
46355;SDS011;32066;49.474;11.106;2022-09-16T09:40:20;6.40;;;1.55;;
46355;SDS011;32066;49.474;11.106;2022-09-16T09:45:31;7.90;;;1.55;;
46355;SDS011;32066;49.474;11.106;2022-09-16T09:48:01;8.15;;;1.88;;
46355;SDS011;32066;49.474;11.106;2022-09-16T09:50:35;9.20;;;1.90;;
46355;SDS011;32066;49.474;11.106;2022-09-16T09:53:09;6.90;;;2.17;;
46355;SDS011;32066;49.474;11.106;2022-09-16T09:55:40;6.13;;;1.75;;
46355;SDS011;32066;49.474;11.106;2022-09-16T09:58:10;5.20;;;1.77;;
46355;SDS011;32066;49.474;11.106;2022-09-16T10:00:44;6.72;;;1.63;;
46355;SDS011;32066;49.474;11.106;2022-09-16T10:03:12;7.25;;;1.60;;
46355;SDS011;32066;49.474;11.106;2022-09-16T10:05:40;8.65;;;1.95;;
46355;SDS011;32066;49.474;11.106;2022-09-16T10:08:14;7.13;;;2.25;;
46355;SDS011;32066;49.474;11.106;2022-09-16T10:10:48;7.88;;;2.00;;
46355;SDS011;32066;49.474;11.106;2022-09-16T10:13:17;7.35;;;2.10;;
46355;SDS011;32066;49.474;11.106;2022-09-16T10:15:46;4.95;;;1.70;;
46355;SDS011;32066;49.474;11.106;2022-09-16T10:18:18;5.25;;;1.70;;
46355;SDS011;32066;49.474;11.106;2022-09-16T10:23:22;8.23;;;1.67;;
46355;SDS011;32066;49.474;11.106;2022-09-16T10:26:01;6.95;;;1.70;;
46355;SDS011;32066;49.474;11.106;2022-09-16T10:28:29;7.13;;;1.73;;
46355;SDS011;32066;49.474;11.106;2022-09-16T10:30:58;4.88;;;1.90;;
46355;SDS011;32066;49.474;11.106;2022-09-16T10:33:26;7.22;;;1.70;;
46355;SDS011;32066;49.474;11.106;2022-09-16T10:35:55;8.23;;;2.03;;
46355;SDS011;32066;49.474;11.106;2022-09-16T10:38:25;4.93;;;1.50;;
46355;SDS011;32066;49.474;11.106;2022-09-16T10:41:02;4.53;;;1.73;;
46355;SDS011;32066;49.474;11.106;2022-09-16T10:43:34;7.72;;;2.30;;
46355;SDS011;32066;49.474;11.106;2022-09-16T10:46:05;6.93;;;1.65;;
46355;SDS011;32066;49.474;11.106;2022-09-16T10:48:33;7.35;;;2.58;;
46355;SDS011;32066;49.474;11.106;2022-09-16T10:51:01;8.48;;;2.05;;
46355;SDS011;32066;49.474;11.106;2022-09-16T10:53:31;11.68;;;2.35;;
46355;SDS011;32066;49.474;11.106;2022-09-16T10:56:00;6.25;;;2.13;;
46355;SDS011;32066;49.474;11.106;2022-09-16T10:58:29;7.97;;;2.70;;
46355;SDS011;32066;49.474;11.106;2022-09-16T11:01:00;6.43;;;2.10;;
46355;SDS011;32066;49.474;11.106;2022-09-16T11:03:53;7.05;;;2.30;;
46355;SDS011;32066;49.474;11.106;2022-09-16T11:07:00;7.05;;;1.92;;
46355;SDS011;32066;49.474;11.106;2022-09-16T11:09:36;5.43;;;1.80;;
46355;SDS011;32066;49.474;11.106;2022-09-16T11:14:55;7.68;;;2.10;;
46355;SDS011;32066;49.474;11.106;2022-09-16T11:17:33;8.07;;;2.00;;
46355;SDS011;32066;49.474;11.106;2022-09-16T11:20:20;9.10;;;1.85;;
46355;SDS011;32066;49.474;11.106;2022-09-16T11:23:12;19.25;;;2.85;;
46355;SDS011;32066;49.474;11.106;2022-09-16T11:25:49;7.60;;;2.33;;
46355;SDS011;32066;49.474;11.106;2022-09-16T11:31:24;9.82;;;2.13;;
46355;SDS011;32066;49.474;11.106;2022-09-16T11:34:02;9.90;;;2.13;;
46355;SDS011;32066;49.474;11.106;2022-09-16T11:36:35;8.75;;;1.90;;
46355;SDS011;32066;49.474;11.106;2022-09-16T11:39:12;7.50;;;2.10;;
46355;SDS011;32066;49.474;11.106;2022-09-16T11:41:50;6.03;;;1.83;;
46355;SDS011;32066;49.474;11.106;2022-09-16T11:44:31;6.35;;;2.38;;
46355;SDS011;32066;49.474;11.106;2022-09-16T11:47:14;5.05;;;1.80;;
46355;SDS011;32066;49.474;11.106;2022-09-16T11:49:58;6.97;;;2.03;;
46355;SDS011;32066;49.474;11.106;2022-09-16T11:52:40;10.32;;;2.10;;
46355;SDS011;32066;49.474;11.106;2022-09-16T11:55:28;6.63;;;2.28;;
46355;SDS011;32066;49.474;11.106;2022-09-16T11:58:02;10.05;;;2.30;;
46355;SDS011;32066;49.474;11.106;2022-09-16T12:00:35;8.82;;;1.90;;
46355;SDS011;32066;49.474;11.106;2022-09-16T12:03:07;10.43;;;2.50;;
46355;SDS011;32066;49.474;11.106;2022-09-16T12:05:40;9.45;;;2.42;;
46355;SDS011;32066;49.474;11.106;2022-09-16T12:08:09;5.45;;;2.10;;
46355;SDS011;32066;49.474;11.106;2022-09-16T12:10:47;7.32;;;2.20;;
46355;SDS011;32066;49.474;11.106;2022-09-16T12:13:19;8.80;;;2.42;;
46355;SDS011;32066;49.474;11.106;2022-09-16T12:15:51;7.60;;;2.20;;
46355;SDS011;32066;49.474;11.106;2022-09-16T12:18:23;8.85;;;2.38;;
46355;SDS011;32066;49.474;11.106;2022-09-16T12:20:56;7.30;;;2.00;;
46355;SDS011;32066;49.474;11.106;2022-09-16T12:23:33;8.32;;;2.15;;
46355;SDS011;32066;49.474;11.106;2022-09-16T12:26:08;4.87;;;2.00;;
46355;SDS011;32066;49.474;11.106;2022-09-16T12:28:38;8.90;;;2.30;;
46355;SDS011;32066;49.474;11.106;2022-09-16T12:31:11;9.35;;;2.40;;
46355;SDS011;32066;49.474;11.106;2022-09-16T12:33:43;6.53;;;1.90;;
46355;SDS011;32066;49.474;11.106;2022-09-16T12:36:17;5.47;;;1.98;;
46355;SDS011;32066;49.474;11.106;2022-09-16T12:38:48;5.78;;;2.60;;
46355;SDS011;32066;49.474;11.106;2022-09-16T12:41:21;6.75;;;2.50;;
46355;SDS011;32066;49.474;11.106;2022-09-16T12:44:02;6.78;;;1.92;;
46355;SDS011;32066;49.474;11.106;2022-09-16T12:46:54;5.80;;;2.28;;
46355;SDS011;32066;49.474;11.106;2022-09-16T12:52:25;6.25;;;2.13;;
46355;SDS011;32066;49.474;11.106;2022-09-16T12:55:19;5.72;;;1.90;;
46355;SDS011;32066;49.474;11.106;2022-09-16T12:58:10;6.47;;;2.08;;
46355;SDS011;32066;49.474;11.106;2022-09-16T13:01:08;9.00;;;2.40;;
46355;SDS011;32066;49.474;11.106;2022-09-16T13:03:43;4.88;;;2.25;;
46355;SDS011;32066;49.474;11.106;2022-09-16T13:06:17;6.97;;;2.28;;
46355;SDS011;32066;49.474;11.106;2022-09-16T13:08:49;6.03;;;2.13;;
46355;SDS011;32066;49.474;11.106;2022-09-16T13:11:18;7.50;;;2.20;;
46355;SDS011;32066;49.474;11.106;2022-09-16T13:13:48;4.80;;;2.20;;
46355;SDS011;32066;49.474;11.106;2022-09-16T13:16:26;7.97;;;2.45;;
46355;SDS011;32066;49.474;11.106;2022-09-16T13:21:56;4.97;;;2.28;;
46355;SDS011;32066;49.474;11.106;2022-09-16T13:24:28;7.80;;;2.30;;
46355;SDS011;32066;49.474;11.106;2022-09-16T13:27:01;16.02;;;3.67;;
46355;SDS011;32066;49.474;11.106;2022-09-16T13:29:48;7.75;;;2.85;;
46355;SDS011;32066;49.474;11.106;2022-09-16T13:32:25;6.65;;;2.15;;
46355;SDS011;32066;49.474;11.106;2022-09-16T13:35:00;9.23;;;2.28;;
46355;SDS011;32066;49.474;11.106;2022-09-16T13:37:27;7.60;;;2.30;;
46355;SDS011;32066;49.474;11.106;2022-09-16T13:39:56;5.78;;;2.13;;
46355;SDS011;32066;49.474;11.106;2022-09-16T13:42:34;7.85;;;2.25;;
46355;SDS011;32066;49.474;11.106;2022-09-16T13:45:01;9.15;;;2.30;;
46355;SDS011;32066;49.474;11.106;2022-09-16T13:47:29;6.70;;;2.67;;
46355;SDS011;32066;49.474;11.106;2022-09-16T13:50:00;7.22;;;1.98;;
46355;SDS011;32066;49.474;11.106;2022-09-16T13:52:33;6.22;;;2.20;;
46355;SDS011;32066;49.474;11.106;2022-09-16T13:55:03;7.53;;;2.20;;
46355;SDS011;32066;49.474;11.106;2022-09-16T13:57:36;5.90;;;1.90;;
46355;SDS011;32066;49.474;11.106;2022-09-16T14:00:17;4.47;;;1.40;;
46355;SDS011;32066;49.474;11.106;2022-09-16T14:02:54;5.18;;;1.73;;
46355;SDS011;32066;49.474;11.106;2022-09-16T14:05:41;5.53;;;1.67;;
46355;SDS011;32066;49.474;11.106;2022-09-16T14:08:26;9.55;;;3.17;;
46355;SDS011;32066;49.474;11.106;2022-09-16T14:11:06;4.80;;;1.80;;
46355;SDS011;32066;49.474;11.106;2022-09-16T14:13:39;5.00;;;2.00;;
46355;SDS011;32066;49.474;11.106;2022-09-16T14:16:11;8.05;;;2.08;;
46355;SDS011;32066;49.474;11.106;2022-09-16T14:18:43;5.07;;;1.77;;
46355;SDS011;32066;49.474;11.106;2022-09-16T14:23:45;5.35;;;2.03;;
46355;SDS011;32066;49.474;11.106;2022-09-16T14:26:15;5.65;;;1.90;;
46355;SDS011;32066;49.474;11.106;2022-09-16T14:28:43;8.55;;;2.47;;
46355;SDS011;32066;49.474;11.106;2022-09-16T14:31:11;5.20;;;2.60;;
46355;SDS011;32066;49.474;11.106;2022-09-16T14:33:42;7.40;;;2.67;;
46355;SDS011;32066;49.474;11.106;2022-09-16T14:36:13;8.02;;;2.97;;
46355;SDS011;32066;49.474;11.106;2022-09-16T14:38:46;7.68;;;2.70;;
46355;SDS011;32066;49.474;11.106;2022-09-16T14:41:18;7.80;;;2.95;;
46355;SDS011;32066;49.474;11.106;2022-09-16T14:43:50;7.90;;;2.80;;
46355;SDS011;32066;49.474;11.106;2022-09-16T14:46:18;10.70;;;2.92;;
46355;SDS011;32066;49.474;11.106;2022-09-16T14:48:45;7.22;;;2.95;;
46355;SDS011;32066;49.474;11.106;2022-09-16T14:51:15;6.78;;;2.35;;
46355;SDS011;32066;49.474;11.106;2022-09-16T14:53:52;7.13;;;2.53;;
46355;SDS011;32066;49.474;11.106;2022-09-16T14:56:22;7.10;;;2.17;;
46355;SDS011;32066;49.474;11.106;2022-09-16T14:58:50;8.27;;;2.78;;
46355;SDS011;32066;49.474;11.106;2022-09-16T15:01:19;9.98;;;2.67;;
46355;SDS011;32066;49.474;11.106;2022-09-16T15:03:51;7.63;;;2.55;;
46355;SDS011;32066;49.474;11.106;2022-09-16T15:06:21;7.38;;;2.65;;
46355;SDS011;32066;49.474;11.106;2022-09-16T15:08:52;6.15;;;2.30;;
46355;SDS011;32066;49.474;11.106;2022-09-16T15:11:24;7.45;;;2.60;;
46355;SDS011;32066;49.474;11.106;2022-09-16T15:13:54;7.57;;;2.60;;
46355;SDS011;32066;49.474;11.106;2022-09-16T15:16:21;11.63;;;3.08;;
46355;SDS011;32066;49.474;11.106;2022-09-16T15:18:51;7.80;;;2.50;;
46355;SDS011;32066;49.474;11.106;2022-09-16T15:21:20;6.40;;;2.50;;
46355;SDS011;32066;49.474;11.106;2022-09-16T15:23:51;6.00;;;2.47;;